Time;durP1;ratioP1;P1;durP2;ratioP2;P2;SDS_P1;SDS_P2;PMS_P1;PMS_P2;Temp;Humidity;BMP_temperature;BMP_pressure;BME280_temperature;BME280_humidity;BME280_pressure;Samples;Min_cycle;Max_cycle;Signal;HPM_P1;HPM_P2
2023/04/28 00:01:22;;;;;;;14.93;8.05;;;14.80;99.90;;;14.03;100.00;101101.94;4126726;28;20050;-74
2023/04/28 00:03:23;;;;;;;16.15;7.78;;;14.80;99.90;;;14.01;100.00;101093.31;4134735;28;20470;-73
2023/04/28 00:05:24;;;;;;;13.43;8.30;;;14.80;99.90;;;14.07;100.00;101103.25;4115432;28;20042;-74
2023/04/28 00:07:25;;;;;;;14.82;7.72;;;14.80;99.90;;;14.08;100.00;101098.78;4131139;28;20059;-74
2023/04/28 00:09:26;;;;;;;13.82;7.68;;;14.80;99.90;;;14.08;100.00;101099.59;4127088;28;20030;-73
2023/04/28 00:11:27;;;;;;;11.82;7.32;;;14.80;99.90;;;13.96;100.00;101065.66;4130940;28;20084;-74
2023/04/28 00:13:28;;;;;;;17.52;8.68;;;14.80;99.90;;;14.04;100.00;101081.53;4136082;28;20026;-73
2023/04/28 00:15:29;;;;;;;11.98;6.78;;;14.80;99.90;;;14.08;100.00;101091.66;4138430;28;20117;-73
2023/04/28 00:17:30;;;;;;;15.70;7.70;;;14.80;99.90;;;14.09;100.00;101088.00;4137473;28;20030;-73
2023/04/28 00:19:31;;;;;;;15.13;7.40;;;14.80;99.90;;;14.10;100.00;101092.28;4130358;28;20074;-73
2023/04/28 00:21:32;;;;;;;11.45;7.03;;;14.80;99.90;;;14.02;100.00;101084.38;4137160;28;20030;-73
2023/04/28 00:23:33;;;;;;;13.13;6.47;;;14.80;99.90;;;14.11;100.00;101093.13;4137398;28;20026;-74
2023/04/28 00:25:33;;;;;;;16.20;7.32;;;14.80;99.90;;;14.05;100.00;101083.19;4138587;28;20105;-74
2023/04/28 00:27:35;;;;;;;13.88;7.50;;;14.80;99.90;;;14.08;100.00;101089.00;4137327;28;20069;-73
2023/04/28 00:29:36;;;;;;;11.98;7.43;;;14.80;99.90;;;14.04;100.00;101082.38;4121092;28;20121;-74
2023/04/28 00:31:37;;;;;;;16.52;7.07;;;14.90;99.90;;;14.09;100.00;101085.34;4137198;28;20494;-74
2023/04/28 00:33:39;;;;;;;10.80;7.28;;;14.80;99.90;;;14.09;100.00;101079.22;4137434;28;20041;-73
2023/04/28 00:35:41;;;;;;;15.00;7.97;;;14.80;99.90;;;14.12;100.00;101085.00;4137346;28;20026;-74
2023/04/28 00:37:42;;;;;;;12.52;7.40;;;14.90;99.90;;;14.07;100.00;101070.59;4136835;28;20514;-74
2023/04/28 00:39:45;;;;;;;11.88;7.63;;;14.90;99.90;;;14.09;100.00;101082.69;4137079;28;20065;-73
2023/04/28 00:41:46;;;;;;;14.43;8.18;;;14.90;99.90;;;14.02;100.00;101073.75;4137642;28;20038;-74
2023/04/28 00:43:48;;;;;;;12.07;8.63;;;14.90;99.90;;;14.14;100.00;101083.00;4127789;28;20030;-74
2023/04/28 00:45:50;;;;;;;16.25;8.88;;;14.90;99.90;;;14.10;100.00;101075.53;4133645;28;20125;-74
2023/04/28 00:47:52;;;;;;;12.55;8.40;;;14.90;99.90;;;14.08;100.00;101077.56;4124091;28;20030;-74
2023/04/28 00:49:54;;;;;;;15.55;9.32;;;14.90;99.90;;;14.05;100.00;101062.81;4138362;28;20034;-74
2023/04/28 00:51:56;;;;;;;13.23;7.97;;;14.90;99.90;;;14.13;100.00;101073.38;4136636;28;20041;-74
2023/04/28 00:53:57;;;;;;;17.90;9.70;;;14.90;99.90;;;14.10;100.00;101068.41;4116755;28;20117;-73
2023/04/28 00:55:58;;;;;;;14.63;8.88;;;14.90;99.90;;;14.16;100.00;101082.81;4140513;28;20053;-74
2023/04/28 00:57:59;;;;;;;12.63;8.60;;;14.90;99.90;;;14.16;100.00;101090.78;4138308;28;20367;-74
2023/04/28 01:00:01;;;;;;;10.80;8.02;;;14.90;99.90;;;14.16;100.00;101091.63;4136964;28;20022;-74
2023/04/28 01:02:02;;;;;;;15.52;9.15;;;14.90;99.90;;;14.07;100.00;101070.59;4138162;28;20042;-73
2023/04/28 01:04:03;;;;;;;14.00;10.02;;;14.90;99.90;;;14.13;100.00;101084.00;4137912;28;20520;-74
2023/04/28 01:06:06;;;;;;;17.35;9.77;;;14.90;99.90;;;14.16;100.00;101075.69;4136477;28;20033;-73
2023/04/28 01:08:07;;;;;;;13.00;8.45;;;14.90;99.90;;;14.14;100.00;101077.69;4130306;28;20065;-73
2023/04/28 01:10:09;;;;;;;13.77;8.05;;;14.90;99.90;;;14.07;100.00;101058.16;4117289;28;20102;-74
2023/04/28 01:12:09;;;;;;;14.15;8.60;;;14.90;99.90;;;14.03;100.00;101048.91;4120571;28;20033;-74
2023/04/28 01:14:10;;;;;;;11.57;8.20;;;14.90;99.90;;;14.14;100.00;101066.25;4127980;28;20054;-74
2023/04/28 01:16:11;;;;;;;14.88;8.25;;;14.90;99.90;;;14.09;100.00;101064.13;4137826;28;20082;-74
2023/04/28 01:18:13;;;;;;;12.90;8.20;;;14.90;99.90;;;14.09;100.00;101058.81;4136740;28;20058;-74
2023/04/28 01:20:14;;;;;;;12.15;8.15;;;14.90;99.90;;;14.02;100.00;101047.22;4136331;28;20438;-74
2023/04/28 01:22:15;;;;;;;10.75;7.15;;;14.90;99.90;;;14.07;100.00;101062.63;4137577;28;20026;-73
2023/04/28 01:24:17;;;;;;;13.13;8.50;;;14.80;99.90;;;14.15;100.00;101082.03;4136694;28;20038;-73
2023/04/28 01:26:17;;;;;;;18.52;9.18;;;14.90;99.90;;;14.14;100.00;101082.19;4148822;28;20130;-74
2023/04/28 01:28:18;;;;;;;15.60;9.48;;;14.80;99.90;;;14.13;100.00;101081.34;4136461;28;20560;-73
2023/04/28 01:30:19;;;;;;;14.43;8.73;;;14.80;99.90;;;14.12;100.00;101079.72;4136606;28;20030;-74
2023/04/28 01:32:20;;;;;;;17.55;9.50;;;14.90;99.90;;;14.07;100.00;101059.97;4130248;28;20053;-74
2023/04/28 01:34:21;;;;;;;14.43;9.23;;;14.90;99.90;;;14.14;100.00;101068.91;4152435;28;20030;-73
2023/04/28 01:36:22;;;;;;;16.08;9.45;;;14.90;99.90;;;14.05;100.00;101056.66;4135770;28;20540;-73
2023/04/28 01:38:23;;;;;;;12.52;8.23;;;14.80;99.90;;;14.12;100.00;101069.09;4152515;28;20072;-74
2023/04/28 01:40:24;;;;;;;10.93;7.88;;;14.80;99.90;;;14.11;100.00;101061.28;4137471;28;20026;-74
2023/04/28 01:42:25;;;;;;;10.40;7.82;;;14.80;99.90;;;14.12;100.00;101066.44;4137358;28;20084;-74
2023/04/28 01:44:26;;;;;;;13.07;8.32;;;14.80;99.90;;;14.05;100.00;101046.91;4121677;28;20514;-74
2023/04/28 01:46:27;;;;;;;14.38;10.00;;;14.90;99.90;;;14.08;100.00;101048.38;4121341;28;20399;-73
2023/04/28 01:48:28;;;;;;;16.73;9.10;;;14.90;99.90;;;14.09;100.00;101058.81;4111361;28;20030;-73
2023/04/28 01:50:29;;;;;;;13.63;8.82;;;14.80;99.90;;;14.00;100.00;101033.31;4130861;28;20109;-74
2023/04/28 01:52:30;;;;;;;12.38;9.35;;;14.80;99.90;;;14.00;100.00;101040.44;4136960;28;20406;-74
2023/04/28 01:54:31;;;;;;;12.07;8.32;;;14.80;99.90;;;14.08;100.00;101054.50;4137392;28;20022;-74
2023/04/28 01:56:32;;;;;;;12.13;7.97;;;14.80;99.90;;;14.01;100.00;101048.22;4135984;28;20561;-73
2023/04/28 01:58:33;;;;;;;14.45;8.82;;;14.80;99.90;;;14.00;100.00;101048.41;4135854;28;20037;-73
2023/04/28 02:00:34;;;;;;;14.43;8.63;;;14.80;99.90;;;14.05;100.00;101062.81;4133037;28;20029;-74
2023/04/28 02:02:35;;;;;;;12.85;8.02;;;14.80;99.90;;;14.06;100.00;101058.34;4136278;28;20030;-74
2023/04/28 02:04:38;;;;;;;11.60;7.72;;;14.70;99.90;;;14.05;100.00;101056.66;4137052;28;20073;-73
2023/04/28 02:06:39;;;;;;;11.23;7.07;;;14.80;99.90;;;14.03;100.00;101059.50;4135687;28;20036;-73
2023/04/28 02:08:40;;;;;;;12.13;7.45;;;14.80;99.90;;;13.94;100.00;101043.78;4134638;28;20097;-73
2023/04/28 02:10:40;;;;;;;9.82;6.60;;;14.70;99.90;;;13.98;100.00;101053.88;4133396;28;20027;-74
2023/04/28 02:12:41;;;;;;;10.95;7.50;;;14.70;99.90;;;13.91;100.00;101047.59;4126396;28;20022;-74
2023/04/28 02:14:42;;;;;;;13.38;7.75;;;14.70;99.90;;;13.98;100.00;101053.06;4130788;28;20053;-74
2023/04/28 02:16:43;;;;;;;13.70;7.03;;;14.70;99.90;;;13.98;100.00;101056.53;4135862;28;20030;-73
2023/04/28 02:18:44;;;;;;;12.50;7.03;;;14.70;99.90;;;13.93;100.00;101050.91;4135531;28;20030;-73
2023/04/28 02:20:45;;;;;;;9.75;7.00;;;14.70;99.90;;;13.90;100.00;101047.75;4135345;28;20022;-73
2023/04/28 02:22:46;;;;;;;10.40;6.75;;;14.70;99.90;;;13.94;100.00;101049.91;4119463;28;20027;-73
2023/04/28 02:24:47;;;;;;;8.23;6.15;;;14.70;99.90;;;13.90;100.00;101047.75;4135554;28;20057;-74
2023/04/28 02:26:48;;;;;;;8.85;6.38;;;14.70;99.90;;;13.90;100.00;101047.75;4119431;28;20070;-74
2023/04/28 02:28:49;;;;;;;7.90;5.93;;;14.70;99.90;;;13.85;100.00;101046.47;4125283;28;20030;-73
2023/04/28 02:30:49;;;;;;;8.60;6.05;;;14.70;99.90;;;13.94;100.00;101063.19;4135121;28;20034;-74
2023/04/28 02:32:50;;;;;;;7.78;5.70;;;14.70;99.90;;;13.95;100.00;101064.81;4131316;28;20041;-74
2023/04/28 02:34:55;;;;;;;10.25;6.22;;;14.70;99.90;;;13.95;100.00;101067.47;4135334;28;20030;-74
2023/04/28 02:36:56;;;;;;;12.18;6.47;;;14.60;99.90;;;13.91;100.00;101063.53;4135191;28;20045;-73
2023/04/28 02:38:56;;;;;;;10.00;6.50;;;14.70;99.90;;;13.88;100.00;101063.84;4136547;28;20030;-74
2023/04/28 02:41:07;;;;;;;9.45;6.43;;;14.70;99.90;;;13.90;100.00;101068.97;4136719;28;20386;-74
2023/04/28 02:43:08;;;;;;;9.60;6.22;;;14.70;99.90;;;13.83;100.00;101072.31;4131151;28;20031;-74
2023/04/28 02:45:10;;;;;;;8.20;5.70;;;14.60;99.90;;;13.90;100.00;101071.63;4120345;28;20526;-74
2023/04/28 02:47:11;;;;;;;9.75;4.88;;;14.70;99.90;;;13.84;100.00;101060.72;4120361;28;20057;-73
2023/04/28 02:49:12;;;;;;;9.75;5.85;;;14.60;99.90;;;13.86;100.00;101058.72;4118981;28;20023;-73
2023/04/28 02:51:13;;;;;;;9.10;4.93;;;14.70;99.90;;;13.90;100.00;101072.47;4106681;28;20031;-73
2023/04/28 02:53:14;;;;;;;8.05;5.43;;;14.70;99.90;;;13.94;100.00;101073.78;4142269;28;20378;-73
2023/04/28 02:55:22;;;;;;;8.32;5.18;;;14.60;99.90;;;13.93;100.00;101063.34;4120147;28;20037;-73
2023/04/28 02:57:23;;;;;;;7.90;4.22;;;14.60;99.90;;;13.97;100.00;101069.97;4119001;28;20541;-74
2023/04/28 02:59:25;;;;;;;8.50;4.57;;;14.70;99.90;;;13.93;100.00;101060.69;4119295;28;20039;-73
2023/04/28 03:01:26;;;;;;;6.57;4.45;;;14.70;99.90;;;13.93;100.00;101060.69;4120307;28;20052;-73
2023/04/28 03:03:27;;;;;;;6.93;4.15;;;14.60;99.90;;;13.83;100.00;101050.25;4120184;28;20372;-73
2023/04/28 03:05:28;;;;;;;5.35;3.67;;;14.70;99.90;;;13.89;100.00;101052.22;4132468;28;20019;-74
2023/04/28 03:07:29;;;;;;;5.85;3.80;;;14.60;99.90;;;13.95;100.00;101066.66;4106254;28;20109;-74
2023/04/28 03:09:30;;;;;;;4.32;3.38;;;14.70;99.90;;;13.96;100.00;101069.13;4135117;28;20132;-73
2023/04/28 03:11:31;;;;;;;6.03;3.25;;;14.70;99.90;;;13.95;100.00;101070.13;4136072;28;20084;-74
2023/04/28 03:13:32;;;;;;;5.38;3.15;;;14.70;99.90;;;13.92;100.00;101061.69;4135062;28;20029;-73
2023/04/28 03:15:33;;;;;;;6.43;3.85;;;14.70;99.90;;;13.91;100.00;101063.53;4122654;28;20034;-73
2023/04/28 03:17:37;;;;;;;4.65;3.05;;;14.70;99.90;;;13.97;100.00;101081.41;4134949;28;20057;-73
2023/04/28 03:19:38;;;;;;;4.43;3.05;;;14.70;99.90;;;13.82;100.00;101057.41;4134975;28;20034;-74
2023/04/28 03:21:39;;;;;;;5.50;2.95;;;14.70;99.90;;;13.83;100.00;101056.41;4134497;28;20417;-73
2023/04/28 03:23:40;;;;;;;3.05;1.98;;;14.70;99.90;;;13.92;100.00;101067.81;4122460;28;20033;-73
2023/04/28 03:25:41;;;;;;;3.25;2.00;;;14.70;99.90;;;13.93;100.00;101069.47;4135057;28;20116;-74
2023/04/28 03:27:42;;;;;;;3.83;2.40;;;14.70;99.90;;;13.97;100.00;101065.50;4128553;28;20034;-73
2023/04/28 03:29:43;;;;;;;3.55;2.20;;;14.70;99.90;;;13.98;100.00;101077.75;4115906;28;20019;-73
2023/04/28 03:31:43;;;;;;;3.65;1.98;;;14.60;99.90;;;13.87;100.00;101062.19;4134919;28;20078;-73
2023/04/28 03:33:45;;;;;;;4.43;2.42;;;14.70;99.90;;;13.89;100.00;101072.66;4136125;28;20105;-73
2023/04/28 03:35:46;;;;;;;2.30;1.48;;;14.70;99.90;;;13.94;100.00;101079.09;4135670;28;20041;-73
2023/04/28 03:37:48;;;;;;;1.73;1.30;;;14.60;99.90;;;13.96;100.00;101078.91;4134560;28;20027;-74
2023/04/28 03:39:49;;;;;;;5.75;1.50;;;14.70;99.90;;;13.94;100.00;101081.75;4122073;28;20023;-73
2023/04/28 03:41:50;;;;;;;2.22;1.23;;;14.70;99.90;;;13.93;100.00;101087.19;4134715;28;20394;-73
2023/04/28 03:43:52;;;;;;;3.25;1.40;;;14.70;99.90;;;13.93;100.00;101090.69;4126756;28;20035;-73
2023/04/28 03:45:53;;;;;;;2.17;1.40;;;14.70;99.90;;;13.92;100.00;101083.72;4122962;28;20051;-74
2023/04/28 03:47:53;;;;;;;3.05;1.30;;;14.60;99.90;;;13.84;100.00;101075.78;4122943;28;20046;-73
2023/04/28 03:49:55;;;;;;;1.75;1.25;;;14.70;99.90;;;13.95;100.00;101094.00;4123083;28;20034;-73
2023/04/28 03:51:56;;;;;;;2.30;1.35;;;14.60;99.90;;;13.90;100.00;101083.06;4122778;28;20038;-73
2023/04/28 03:53:57;;;;;;;1.60;1.30;;;14.70;99.90;;;13.85;100.00;101078.28;4123157;28;20034;-74
2023/04/28 03:55:58;;;;;;;2.13;1.30;;;14.60;99.90;;;13.83;100.00;101069.66;4122952;28;20034;-73
2023/04/28 03:57:59;;;;;;;2.10;1.40;;;14.60;99.90;;;13.87;100.00;101086.06;4127517;28;20399;-73
2023/04/28 04:00:01;;;;;;;2.80;1.48;;;14.60;99.90;;;13.95;100.00;101098.50;4125548;28;20404;-73
2023/04/28 04:02:01;;;;;;;2.47;1.70;;;14.60;99.90;;;13.86;100.00;101084.41;4122806;28;20387;-73
2023/04/28 04:04:03;;;;;;;2.25;1.50;;;14.70;99.90;;;13.91;100.00;101091.84;4137289;28;20035;-73
2023/04/28 04:06:05;;;;;;;1.80;1.20;;;14.70;99.90;;;13.96;100.00;101105.44;4127760;28;20023;-73
2023/04/28 04:08:06;;;;;;;1.92;1.35;;;14.70;99.90;;;13.84;100.00;101087.22;4139017;28;20086;-73
2023/04/28 04:10:07;;;;;;;2.63;1.30;;;14.60;99.90;;;13.93;100.00;101098.66;4137643;28;20039;-73
2023/04/28 04:12:08;;;;;;;5.65;1.60;;;14.70;99.90;;;13.92;100.00;101104.94;4137473;28;20190;-73
2023/04/28 04:14:09;;;;;;;4.97;1.98;;;14.60;99.90;;;13.92;100.00;101096.97;4138738;28;20097;-73
2023/04/28 04:16:10;;;;;;;2.22;1.58;;;14.60;99.90;;;13.89;100.00;101093.88;4137502;28;20030;-73
2023/04/28 04:18:12;;;;;;;6.30;1.98;;;14.60;99.90;;;13.85;100.00;101082.75;4137479;28;20026;-73
2023/04/28 04:20:12;;;;;;;3.33;1.88;;;14.60;99.90;;;13.90;100.00;101101.63;4131485;28;20073;-74
2023/04/28 04:22:13;;;;;;;2.33;1.50;;;14.60;99.90;;;13.92;100.00;101094.31;4153661;28;20449;-73
2023/04/28 04:24:14;;;;;;;2.20;1.42;;;14.60;99.90;;;13.86;100.00;101092.34;4137485;28;20027;-74
2023/04/28 04:26:15;;;;;;;3.70;1.80;;;14.60;99.90;;;13.91;100.00;101092.69;4121414;28;20030;-73
2023/04/28 04:28:16;;;;;;;3.28;1.80;;;14.60;99.90;;;13.87;100.00;101112.56;4138417;28;20494;-74
2023/04/28 04:30:17;;;;;;;2.47;1.60;;;14.60;99.90;;;13.91;100.00;101119.22;4132273;28;20037;-74
2023/04/28 04:32:18;;;;;;;2.75;1.90;;;14.60;99.90;;;13.92;100.00;101114.75;4113405;28;20038;-74
2023/04/28 04:34:19;;;;;;;3.05;2.22;;;14.60;99.90;;;13.83;100.00;101098.00;4132805;28;20057;-73
2023/04/28 04:36:20;;;;;;;2.47;1.90;;;14.60;99.90;;;13.82;100.00;101105.16;4120665;28;20101;-74
2023/04/28 04:38:21;;;;;;;3.70;1.70;;;14.60;99.90;;;13.84;100.00;101100.50;4138412;28;20114;-74
2023/04/28 04:40:22;;;;;;;2.22;1.60;;;14.60;99.90;;;13.93;100.00;101122.50;4137092;28;20082;-73
2023/04/28 04:42:23;;;;;;;3.05;1.88;;;14.60;99.90;;;13.83;100.00;101109.44;4153198;28;20079;-74
2023/04/28 04:44:24;;;;;;;2.90;1.77;;;14.60;99.90;;;13.91;100.00;101118.38;4122789;28;20027;-74
2023/04/28 04:46:25;;;;;;;2.17;1.40;;;14.60;99.90;;;13.90;100.00;101120.19;4125101;28;20485;-74
2023/04/28 04:48:26;;;;;;;1.95;1.40;;;14.60;99.90;;;13.87;100.00;101120.53;4129618;28;20100;-74
2023/04/28 04:50:27;;;;;;;2.92;1.90;;;14.60;99.90;;;13.87;100.00;101117.88;4137179;28;20027;-74
2023/04/28 04:52:28;;;;;;;3.22;1.77;;;14.60;99.90;;;13.86;100.00;101119.69;4135617;28;20160;-73
2023/04/28 04:54:29;;;;;;;2.30;1.67;;;14.60;99.90;;;13.91;100.00;101134.28;4136286;28;20402;-74
2023/04/28 04:56:30;;;;;;;2.50;1.60;;;14.60;99.90;;;13.85;100.00;101119.88;4138147;28;20030;-74
2023/04/28 04:58:31;;;;;;;1.92;1.23;;;14.60;99.90;;;13.90;100.00;101127.31;4136854;28;20046;-74
2023/04/28 05:00:32;;;;;;;2.10;1.55;;;14.60;99.90;;;13.83;100.00;101124.50;4123180;28;20450;-74
2023/04/28 05:02:33;;;;;;;4.32;1.50;;;14.60;99.90;;;13.80;100.00;101117.72;4124013;28;20038;-74
2023/04/28 05:04:34;;;;;;;2.15;1.55;;;14.60;99.90;;;13.82;100.00;101123.72;4134464;28;20089;-73
2023/04/28 05:06:35;;;;;;;2.45;1.40;;;14.60;99.90;;;13.88;100.00;101130.16;4138026;28;20026;-73
2023/04/28 05:08:36;;;;;;;2.22;1.60;;;14.60;99.90;;;13.87;100.00;101136.44;4136687;28;20030;-74
2023/04/28 05:10:37;;;;;;;3.08;1.80;;;14.60;99.90;;;13.81;100.00;101130.00;4117178;28;20069;-73
2023/04/28 05:12:38;;;;;;;2.83;1.67;;;14.60;99.90;;;13.85;100.00;101133.97;4126840;28;20057;-74
2023/04/28 05:14:39;;;;;;;2.83;1.50;;;14.60;99.90;;;13.80;100.00;101117.72;4129857;28;20445;-73
2023/04/28 05:16:41;;;;;;;2.90;1.67;;;14.60;99.90;;;13.84;100.00;101129.66;4120575;28;20031;-74
2023/04/28 05:18:42;;;;;;;2.80;1.52;;;14.60;99.90;;;13.83;100.00;101128.00;4120202;28;20056;-73
2023/04/28 05:20:43;;;;;;;2.60;1.60;;;14.60;99.90;;;13.80;100.00;101122.19;4120717;28;20027;-73
2023/04/28 05:22:43;;;;;;;1.88;1.58;;;14.60;99.90;;;13.78;100.00;101113.59;4137913;28;20026;-73
2023/04/28 05:24:44;;;;;;;2.97;1.80;;;14.60;99.90;;;13.90;100.00;101141.41;4136704;28;20437;-73
2023/04/28 05:26:45;;;;;;;3.22;2.03;;;14.60;99.90;;;13.89;100.00;101144.25;4119264;28;20103;-74
2023/04/28 05:28:46;;;;;;;4.53;1.85;;;14.60;99.90;;;13.81;100.00;101134.47;4137716;28;20033;-74
2023/04/28 05:30:47;;;;;;;4.05;1.75;;;14.60;99.90;;;13.93;100.00;101145.56;4119828;28;20109;-73
2023/04/28 05:32:48;;;;;;;2.45;2.10;;;14.60;99.90;;;13.89;100.00;101134.44;4148797;28;20022;-74
2023/04/28 05:34:48;;;;;;;2.67;1.95;;;14.60;99.90;;;13.89;100.00;101120.38;4150179;28;20030;-73
2023/04/28 05:36:51;;;;;;;2.72;2.28;;;14.60;99.90;;;13.85;100.00;101114.59;4136119;28;20037;-74
2023/04/28 05:38:52;;;;;;;3.28;2.38;;;14.60;99.90;;;13.84;100.00;101116.41;4152495;28;20049;-74
2023/04/28 05:40:53;;;;;;;2.30;1.85;;;14.70;99.90;;;13.94;100.00;101128.66;4124609;28;20027;-74
2023/04/28 05:42:54;;;;;;;4.57;2.55;;;14.70;99.90;;;14.00;100.00;101128.81;4135057;28;20030;-73
2023/04/28 05:44:55;;;;;;;4.25;2.83;;;14.70;99.90;;;14.00;100.00;101135.94;4152325;28;20080;-74
2023/04/28 05:46:56;;;;;;;3.70;2.15;;;14.70;99.90;;;14.05;100.00;101138.91;4136127;28;20514;-74
2023/04/28 05:48:57;;;;;;;4.30;2.72;;;14.80;99.90;;;13.98;100.00;101116.72;4136259;28;20133;-74
2023/04/28 05:50:58;;;;;;;3.45;2.33;;;14.80;99.90;;;13.99;100.00;101111.22;4135765;28;20034;-74
2023/04/28 05:52:59;;;;;;;4.38;2.38;;;14.80;99.90;;;14.14;100.00;101136.06;4152535;28;20649;-74
2023/04/28 05:55:00;;;;;;;2.92;2.13;;;14.80;99.90;;;14.13;100.00;101118.47;4128202;28;20030;-74
2023/04/28 05:57:01;;;;;;;3.60;2.35;;;14.90;99.90;;;14.01;100.00;101106.56;4135997;28;20561;-74
2023/04/28 05:59:03;;;;;;;3.42;2.47;;;14.90;99.90;;;14.16;100.00;101123.44;4134639;28;20030;-73
2023/04/28 06:01:04;;;;;;;3.83;2.63;;;14.90;99.90;;;14.20;100.00;101124.78;4108862;28;20042;-73
2023/04/28 06:03:07;;;;;;;4.47;2.30;;;14.90;99.90;;;14.21;100.00;101129.09;4129225;28;20030;-73
2023/04/28 06:05:09;;;;;;;4.13;2.78;;;14.90;99.90;;;14.19;100.00;101133.72;4137011;28;20037;-73
2023/04/28 06:07:10;;;;;;;4.60;2.70;;;15.00;99.90;;;14.20;100.00;101134.56;4133069;28;20034;-73
2023/04/28 06:09:11;;;;;;;3.97;2.90;;;14.90;99.90;;;14.16;100.00;101117.31;4135831;28;20026;-74
2023/04/28 06:11:11;;;;;;;2.60;2.22;;;15.00;99.90;;;14.24;100.00;101141.19;4137100;28;20026;-74
2023/04/28 06:13:12;;;;;;;3.40;2.67;;;15.00;99.90;;;14.13;100.00;101134.41;4135808;28;20031;-73
2023/04/28 06:15:13;;;;;;;3.17;2.65;;;15.00;99.90;;;14.25;100.00;101145.47;4133903;28;20058;-73
2023/04/28 06:17:14;;;;;;;3.40;2.50;;;15.00;99.90;;;14.25;100.00;101148.97;4135489;28;20081;-73
2023/04/28 06:19:17;;;;;;;4.68;2.40;;;15.00;99.90;;;14.22;100.00;101141.34;4123842;28;20015;-73
2023/04/28 06:21:20;;;;;;;5.15;2.33;;;15.00;99.90;;;14.27;100.00;101141.69;4130430;28;20513;-73
2023/04/28 06:23:20;;;;;;;3.10;2.30;;;15.00;99.90;;;14.19;100.00;101119.63;4135690;28;20034;-73
2023/04/28 06:25:21;;;;;;;4.25;2.42;;;15.00;99.90;;;14.28;100.00;101132.72;4135694;28;20037;-73
2023/04/28 06:27:22;;;;;;;4.28;2.75;;;15.00;99.90;;;14.34;100.00;101134.72;4136823;28;20498;-73
2023/04/28 06:29:23;;;;;;;5.05;2.53;;;15.10;99.90;;;14.37;100.00;101133.53;4136638;28;20041;-73
2023/04/28 06:31:24;;;;;;;3.25;2.72;;;15.10;99.90;;;14.44;100.00;101133.69;4121099;28;20031;-73
2023/04/28 06:33:25;;;;;;;2.95;2.47;;;15.10;99.90;;;14.39;100.00;101123.59;4120608;28;20118;-73
2023/04/28 06:35:27;;;;;;;4.18;2.25;;;15.20;99.90;;;14.51;100.00;101116.91;4127132;28;20050;-73
2023/04/28 06:37:27;;;;;;;4.18;2.80;;;15.20;99.90;;;14.54;100.00;101116.56;4140793;28;20031;-73
2023/04/28 06:39:28;;;;;;;4.57;2.78;;;15.20;99.90;;;14.57;100.00;101110.09;4135877;28;20030;-73
2023/04/28 06:41:30;;;;;;;3.38;2.45;;;15.30;99.90;;;14.63;100.00;101120.03;4123388;28;20100;-73
2023/04/28 06:43:32;;;;;;;3.28;2.70;;;15.30;99.90;;;14.61;100.00;101108.72;4129230;28;20027;-73
2023/04/28 06:45:33;;;;;;;4.38;2.88;;;15.30;99.90;;;14.59;100.00;101111.56;4129492;28;20050;-72
2023/04/28 06:47:36;;;;;;;4.28;2.60;;;15.30;99.90;;;14.62;100.00;101108.56;4134276;28;20065;-72
2023/04/28 06:49:36;;;;;;;4.03;2.70;;;15.30;99.90;;;14.61;100.00;101101.59;4135343;28;20583;-72
2023/04/28 06:51:37;;;;;;;3.83;2.60;;;15.30;99.90;;;14.68;100.00;101101.72;4134703;28;20030;-72
2023/04/28 06:53:38;;;;;;;3.38;2.30;;;15.40;99.90;;;14.75;100.00;101092.91;4136413;28;20031;-72
2023/04/28 06:55:39;;;;;;;3.75;2.45;;;15.40;99.90;;;14.85;100.00;101085.53;4136292;28;20029;-72
2023/04/28 06:57:41;;;;;;;4.30;3.10;;;15.60;99.90;;;14.89;100.00;101092.16;4135182;28;20513;-72
2023/04/28 06:59:43;;;;;;;6.05;3.67;;;15.70;99.90;;;15.00;100.00;101082.94;4127392;28;20027;-71
2023/04/28 07:01:44;;;;;;;8.75;7.18;;;15.70;99.90;;;15.13;100.00;101093.81;4132157;28;20503;-71
2023/04/28 07:03:45;;;;;;;10.10;9.05;;;15.80;99.90;;;15.19;100.00;101079.84;4134940;28;20026;-71
2023/04/28 07:05:46;;;;;;;5.68;5.07;;;15.90;99.90;;;15.16;100.00;101085.50;4134991;28;20046;-70
2023/04/28 07:07:47;;;;;;;3.53;2.95;;;15.90;99.90;;;15.21;100.00;101083.13;4127552;28;20030;-70
2023/04/28 07:09:48;;;;;;;3.88;2.70;;;15.90;99.90;;;15.29;100.00;101077.75;4135058;28;20046;-70
2023/04/28 07:11:49;;;;;;;4.93;2.30;;;16.00;99.90;;;15.22;100.00;101074.16;4121235;28;20101;-71
2023/04/28 07:13:50;;;;;;;4.97;3.00;;;16.00;99.90;;;15.34;100.00;101071.91;4124205;28;20038;-72
2023/04/28 07:15:51;;;;;;;2.80;2.40;;;16.10;99.90;;;15.45;100.00;101074.97;4135034;28;20030;-72
2023/04/28 07:17:52;;;;;;;3.15;2.22;;;16.10;99.90;;;15.41;100.00;101060.34;4128930;28;20561;-74
2023/04/28 07:19:53;;;;;;;2.45;2.20;;;16.20;99.90;;;15.43;100.00;101062.84;4128051;28;20023;-74
2023/04/28 07:21:54;;;;;;;2.42;1.77;;;16.20;99.90;;;15.62;100.00;101070.34;4118659;28;20034;-74
2023/04/28 07:23:58;;;;;;;2.80;1.80;;;16.30;99.90;;;15.64;100.00;101075.50;4125931;28;20025;-74
2023/04/28 07:25:58;;;;;;;2.38;1.80;;;16.30;99.90;;;15.62;100.00;101069.53;4135191;28;20110;-74
2023/04/28 07:28:02;;;;;;;2.85;2.15;;;16.40;99.90;;;15.57;100.00;101071.88;4135067;28;20042;-74
2023/04/28 07:30:04;;;;;;;;;;;16.30;99.90;;;15.56;100.00;101086.22;4142496;28;20394;-74
2023/04/28 07:32:07;;;;;;;3.00;1.98;;;16.30;99.90;;;15.64;100.00;101084.31;4136161;28;20401;-74
2023/04/28 07:34:08;;;;;;;2.50;1.83;;;16.40;99.90;;;15.63;100.00;101084.47;4136039;28;20452;-74
2023/04/28 07:36:09;;;;;;;2.72;2.03;;;16.40;99.90;;;15.66;100.00;101092.91;4135591;28;20031;-74
2023/04/28 07:38:10;;;;;;;2.47;1.80;;;16.40;99.90;;;15.65;100.00;101077.97;4135834;28;20053;-74
2023/04/28 07:40:11;;;;;;;2.00;1.80;;;16.40;99.90;;;15.73;100.00;101082.38;4134669;28;20034;-74
2023/04/28 07:42:12;;;;;;;2.72;2.45;;;16.40;99.90;;;15.64;100.00;101081.66;4134831;28;20070;-74
2023/04/28 07:44:13;;;;;;;2.65;2.10;;;16.50;99.90;;;15.75;100.00;101083.03;4122363;28;20131;-74
2023/04/28 07:46:14;;;;;;;3.10;2.05;;;16.50;99.90;;;15.70;100.00;101082.75;4150408;28;20066;-74
2023/04/28 07:48:15;;;;;;;2.38;2.10;;;16.50;99.90;;;15.70;100.00;101091.56;4134914;28;20410;-74
2023/04/28 07:50:16;;;;;;;4.00;2.45;;;16.40;99.90;;;15.68;100.00;101095.41;4141729;28;20046;-74
2023/04/28 07:52:17;;;;;;;3.17;1.95;;;16.40;99.90;;;15.73;100.00;101090.38;4130705;28;20050;-74
2023/04/28 07:54:18;;;;;;;2.83;2.13;;;16.40;99.90;;;15.74;100.00;101089.38;4133889;28;20097;-74
2023/04/28 07:56:20;;;;;;;2.63;2.10;;;16.50;99.90;;;15.88;100.00;101097.38;4134774;28;20122;-74
2023/04/28 07:58:21;;;;;;;2.70;1.77;;;16.50;99.90;;;15.94;100.00;101104.63;4128540;28;20060;-74
2023/04/28 08:00:22;;;;;;;2.60;2.40;;;16.60;99.90;;;15.92;100.00;101109.28;4134625;28;20073;-74
2023/04/28 08:02:23;;;;;;;2.80;2.22;;;16.70;99.90;;;15.96;100.00;101112.41;4119551;28;20106;-74
2023/04/28 08:04:24;;;;;;;2.80;2.20;;;16.60;99.90;;;15.84;100.00;101103.22;4124945;28;20022;-74
2023/04/28 08:06:25;;;;;;;4.95;2.83;;;16.60;99.90;;;15.76;100.00;101103.31;4135506;28;20038;-74
2023/04/28 08:08:26;;;;;;;2.53;2.20;;;16.50;99.90;;;15.75;100.00;101096.31;4135290;28;20026;-74
2023/04/28 08:10:27;;;;;;;2.97;2.30;;;16.50;99.90;;;15.68;100.00;101096.22;4133170;28;20165;-74
2023/04/28 08:12:28;;;;;;;2.67;2.30;;;16.50;99.90;;;15.66;100.00;101097.41;4123417;28;20494;-74
2023/04/28 08:14:29;;;;;;;2.50;2.05;;;16.40;99.90;;;15.65;100.00;101104.56;4135856;28;20422;-74
2023/04/28 08:16:30;;;;;;;6.90;2.10;;;16.40;99.90;;;15.74;100.00;101105.31;4134158;28;20038;-74
2023/04/28 08:18:31;;;;;;;5.32;2.15;;;16.40;99.90;;;15.70;100.00;101102.19;4133771;28;20038;-74